Time;durP1;ratioP1;P1;durP2;ratioP2;P2;SDS_P1;SDS_P2;PMS_P1;PMS_P2;Temp;Humidity;BMP_temperature;BMP_pressure;BME280_temperature;BME280_humidity;BME280_pressure;Samples;Min_cycle;Max_cycle;Signal;HPM_P1;HPM_P2
2022/09/01 00:00:48;;;;;;;3.40;2.50;;;17.80;99.90;;;;;;5024508;28;20441;-76
2022/09/01 00:03:15;;;;;;;4.43;2.72;;;17.80;99.90;;;;;;5019146;28;20018;-76
2022/09/01 00:05:41;;;;;;;2.97;2.60;;;17.70;99.90;;;;;;5020399;28;20088;-76
2022/09/01 00:08:06;;;;;;;3.28;2.63;;;17.70;99.90;;;;;;5026435;28;20483;-77
2022/09/01 00:10:32;;;;;;;3.15;2.85;;;17.70;99.90;;;;;;5023702;28;20025;-76
2022/09/01 00:12:58;;;;;;;3.17;2.70;;;17.60;99.90;;;;;;5024255;28;20029;-76
2022/09/01 00:15:25;;;;;;;2.95;2.40;;;17.60;99.90;;;;;;5018305;28;20028;-76
2022/09/01 00:17:50;;;;;;;2.95;2.70;;;17.50;99.90;;;;;;5014603;28;20394;-76
2022/09/01 00:20:16;;;;;;;4.32;3.38;;;17.60;99.90;;;;;;5014566;28;20104;-76
2022/09/01 00:22:42;;;;;;;4.07;2.65;;;17.50;99.90;;;;;;5024556;28;20030;-76
2022/09/01 00:25:08;;;;;;;3.75;2.90;;;17.40;99.90;;;;;;5016234;28;20053;-76
2022/09/01 00:27:35;;;;;;;5.00;3.00;;;17.60;99.90;;;;;;5024821;28;20083;-77
2022/09/01 00:30:01;;;;;;;5.78;3.00;;;17.40;99.90;;;;;;5006151;28;20033;-76
2022/09/01 00:32:27;;;;;;;4.45;3.00;;;17.20;99.90;;;;;;5013917;28;20033;-74
2022/09/01 00:34:53;;;;;;;3.75;2.70;;;17.10;99.90;;;;;;5020360;28;20104;-74
2022/09/01 00:37:18;;;;;;;3.25;2.90;;;17.00;99.90;;;;;;5011319;28;20448;-76
2022/09/01 00:39:44;;;;;;;4.82;3.08;;;17.00;99.90;;;;;;5020958;28;20017;-76
2022/09/01 00:42:10;;;;;;;3.50;2.95;;;16.90;99.90;;;;;;5010248;28;20018;-77
2022/09/01 00:44:37;;;;;;;4.15;3.00;;;16.80;99.90;;;;;;5012582;28;20037;-76
2022/09/01 00:47:04;;;;;;;3.85;2.58;;;16.80;99.90;;;;;;5011377;28;20079;-76
2022/09/01 00:49:44;;;;;;;3.00;2.70;;;16.70;99.90;;;;;;5005326;28;20384;-76
2022/09/01 00:52:18;;;;;;;3.78;2.70;;;16.90;99.90;;;;;;5022641;28;20025;-78
2022/09/01 00:54:48;;;;;;;3.70;3.08;;;16.90;99.90;;;;;;5013612;28;20086;-77
2022/09/01 00:57:14;;;;;;;3.80;2.85;;;16.80;99.90;;;;;;5007685;28;20027;-76
2022/09/01 00:59:59;;;;;;;3.80;3.28;;;16.80;99.90;;;;;;5019693;28;20032;-75
2022/09/01 01:02:25;;;;;;;4.43;2.80;;;16.90;99.90;;;;;;5015225;28;20085;-77
2022/09/01 01:04:52;;;;;;;3.03;2.70;;;16.80;99.90;;;;;;5015644;28;20156;-76
2022/09/01 01:07:21;;;;;;;3.50;3.20;;;16.80;99.90;;;;;;5012988;28;20029;-76
2022/09/01 01:09:47;;;;;;;3.35;3.05;;;16.70;99.90;;;;;;5013636;28;20021;-76
2022/09/01 01:12:16;;;;;;;4.10;3.30;;;16.60;99.90;;;;;;5004960;28;20042;-76
2022/09/01 01:14:44;;;;;;;3.40;3.10;;;16.80;99.90;;;;;;5022450;28;20026;-76
2022/09/01 01:17:10;;;;;;;5.55;3.60;;;16.80;99.90;;;;;;5021386;28;20022;-76
2022/09/01 01:23:04;;;;;;;4.50;3.10;;;16.70;99.90;;;;;;5007420;28;20426;-76
2022/09/01 01:25:29;;;;;;;3.40;2.83;;;16.60;99.90;;;;;;5001943;28;20165;-76
2022/09/01 01:28:21;;;;;;;5.45;3.10;;;16.50;99.90;;;;;;4991977;28;20101;-76
2022/09/01 01:31:04;;;;;;;5.03;3.20;;;16.50;99.90;;;;;;5004358;28;20033;-75
2022/09/01 01:33:47;;;;;;;4.20;3.42;;;16.30;99.90;;;;;;5010540;28;20060;-76
2022/09/01 01:36:31;;;;;;;3.40;3.03;;;16.20;99.90;;;;;;4997615;28;20046;-76
2022/09/01 01:39:00;;;;;;;3.88;2.90;;;16.30;99.90;;;;;;4999216;28;20102;-76
2022/09/01 01:41:28;;;;;;;3.35;3.05;;;16.30;99.90;;;;;;5005079;28;20415;-75
2022/09/01 01:43:55;;;;;;;3.80;3.40;;;16.20;99.90;;;;;;4991064;28;20077;-76
2022/09/01 01:46:21;;;;;;;5.47;3.30;;;16.00;99.90;;;;;;5004956;28;20455;-78
2022/09/01 01:48:47;;;;;;;4.10;3.00;;;16.00;99.90;;;;;;5005106;28;20022;-75
2022/09/01 01:51:16;;;;;;;4.50;3.40;;;16.10;99.90;;;;;;4998897;28;20487;-76
2022/09/01 01:53:42;;;;;;;5.32;3.67;;;16.00;99.90;;;;;;4998407;28;20034;-75
2022/09/01 01:56:09;;;;;;;3.65;3.30;;;16.00;99.90;;;;;;5004153;28;20019;-75
2022/09/01 01:58:35;;;;;;;3.83;3.42;;;15.90;99.90;;;;;;4991659;28;20019;-76
2022/09/01 02:01:02;;;;;;;4.10;3.42;;;15.50;99.90;;;;;;4999716;28;20037;-74
2022/09/01 02:03:37;;;;;;;3.35;3.05;;;15.60;99.90;;;;;;4998652;28;20064;-74
2022/09/01 02:06:06;;;;;;;3.50;3.20;;;15.80;99.90;;;;;;5002617;28;20018;-75
2022/09/01 02:08:34;;;;;;;3.55;3.17;;;15.80;99.90;;;;;;4990689;28;20033;-76
2022/09/01 02:11:01;;;;;;;3.35;3.05;;;16.00;99.90;;;;;;5002994;28;20042;-76
2022/09/01 02:13:30;;;;;;;5.72;3.38;;;16.00;99.90;;;;;;5001754;28;20018;-75
2022/09/01 02:16:01;;;;;;;3.88;3.50;;;15.90;99.90;;;;;;5005765;28;20117;-77
2022/09/01 02:18:33;;;;;;;6.45;3.63;;;15.80;99.90;;;;;;5008623;28;20018;-76
2022/09/01 02:20:59;;;;;;;3.53;3.20;;;15.80;99.90;;;;;;5006919;28;20041;-76
2022/09/01 02:23:25;;;;;;;3.83;3.38;;;16.10;99.90;;;;;;5002144;28;20022;-76
2022/09/01 02:25:54;;;;;;;4.53;3.72;;;15.80;99.90;;;;;;5003773;28;20472;-76
2022/09/01 02:28:21;;;;;;;4.57;3.30;;;15.70;99.90;;;;;;5014199;28;20113;-76
2022/09/01 02:30:53;;;;;;;4.15;3.33;;;15.80;99.90;;;;;;5003297;28;20042;-75
2022/09/01 02:33:20;;;;;;;4.47;3.17;;;15.40;99.90;;;;;;5001809;28;20053;-75
2022/09/01 02:35:53;;;;;;;5.22;3.75;;;15.50;99.90;;;;;;5002598;28;20038;-75
2022/09/01 02:38:19;;;;;;;5.03;3.75;;;15.60;99.90;;;;;;5001535;28;20032;-74
2022/09/01 02:40:47;;;;;;;6.10;3.65;;;15.50;99.90;;;;;;5014603;28;20522;-77
2022/09/01 02:43:19;;;;;;;3.92;3.55;;;15.40;99.90;;;;;;5007669;28;20045;-76
2022/09/01 02:45:56;;;;;;;6.45;3.63;;;15.40;99.90;;;;;;5008192;28;20033;-76
2022/09/01 02:48:27;;;;;;;4.25;3.85;;;15.30;99.90;;;;;;5003375;28;20403;-76
2022/09/01 02:50:56;;;;;;;5.03;3.63;;;15.50;99.90;;;;;;4999759;28;20033;-76
2022/09/01 02:53:21;;;;;;;3.63;3.33;;;15.40;99.90;;;;;;5003809;28;20093;-76
2022/09/01 02:55:47;;;;;;;3.83;3.42;;;15.20;99.90;;;;;;5006423;28;20472;-76
2022/09/01 02:58:17;;;;;;;5.38;3.40;;;15.30;99.90;;;;;;5005309;28;20048;-76
2022/09/01 03:00:44;;;;;;;4.40;3.50;;;15.50;99.90;;;;;;5014030;28;20511;-76
2022/09/01 03:03:16;;;;;;;3.53;3.22;;;15.30;99.90;;;;;;5014048;28;20073;-75
2022/09/01 03:05:42;;;;;;;4.13;3.72;;;15.40;99.90;;;;;;5013078;28;20061;-76
2022/09/01 03:08:13;;;;;;;4.90;3.70;;;15.50;99.90;;;;;;5012663;28;20391;-75
2022/09/01 03:10:40;;;;;;;3.88;3.50;;;15.40;99.90;;;;;;5008786;28;20018;-76
2022/09/01 03:13:13;;;;;;;5.55;3.88;;;15.30;99.90;;;;;;4998803;28;20392;-75
2022/09/01 03:15:39;;;;;;;3.78;3.47;;;15.70;99.90;;;;;;5023802;28;20048;-76
2022/09/01 03:18:07;;;;;;;3.80;3.50;;;15.20;99.90;;;;;;4998169;28;20018;-75
2022/09/01 03:20:34;;;;;;;5.68;3.72;;;15.60;99.90;;;;;;5005104;28;20058;-78
2022/09/01 03:23:02;;;;;;;4.10;3.60;;;15.40;99.90;;;;;;5005671;28;20055;-77
2022/09/01 03:25:28;;;;;;;5.10;3.60;;;15.30;99.90;;;;;;5012969;28;20026;-78
2022/09/01 03:27:56;;;;;;;4.80;3.40;;;15.20;99.90;;;;;;5001649;28;20034;-77
2022/09/01 03:30:22;;;;;;;3.83;3.40;;;15.30;99.90;;;;;;5008501;28;20036;-77
2022/09/01 03:32:48;;;;;;;4.30;3.58;;;15.40;99.90;;;;;;5008489;28;20022;-76
2022/09/01 03:35:14;;;;;;;3.90;3.35;;;15.50;99.90;;;;;;5006054;28;20027;-77
2022/09/01 03:37:43;;;;;;;6.80;3.63;;;15.50;99.90;;;;;;5005606;28;20029;-78
2022/09/01 03:40:11;;;;;;;5.07;3.47;;;15.50;99.90;;;;;;5000977;28;20026;-78
2022/09/01 03:42:37;;;;;;;5.85;3.75;;;15.50;99.90;;;;;;4998820;28;20045;-77
2022/09/01 03:45:08;;;;;;;4.85;3.58;;;15.60;99.90;;;;;;5014444;28;20050;-76
2022/09/01 03:47:39;;;;;;;3.58;3.13;;;15.60;99.90;;;;;;5000468;28;20061;-77
2022/09/01 03:50:10;;;;;;;4.85;3.40;;;15.60;99.90;;;;;;5004452;28;20077;-76
2022/09/01 03:52:38;;;;;;;4.07;3.30;;;15.40;99.90;;;;;;5006828;28;20137;-76
2022/09/01 03:55:04;;;;;;;4.28;3.25;;;15.50;99.90;;;;;;5008145;28;20084;-77
2022/09/01 03:57:29;;;;;;;3.55;3.10;;;15.50;99.90;;;;;;5003730;28;20021;-77
2022/09/01 03:59:55;;;;;;;3.65;3.35;;;15.50;99.90;;;;;;5005532;28;20080;-77
2022/09/01 04:02:21;;;;;;;6.25;3.58;;;15.60;99.90;;;;;;5001183;28;20021;-78
2022/09/01 04:04:47;;;;;;;4.80;3.70;;;15.60;99.90;;;;;;5006707;28;20026;-77
2022/09/01 04:07:13;;;;;;;5.07;3.65;;;15.50;99.90;;;;;;5008328;28;20057;-77
2022/09/01 04:09:38;;;;;;;3.90;3.50;;;15.30;99.90;;;;;;5007142;28;20025;-77
2022/09/01 04:12:07;;;;;;;4.10;3.40;;;15.20;99.90;;;;;;4995801;28;20495;-76
2022/09/01 04:14:34;;;;;;;4.45;3.88;;;15.10;99.90;;;;;;5019272;28;20074;-76
2022/09/01 04:19:44;;;;;;;4.88;3.80;;;15.20;99.90;;;;;;5007549;28;20129;-75
2022/09/01 04:22:13;;;;;;;3.60;3.10;;;15.10;99.90;;;;;;5012665;28;20022;-75
2022/09/01 04:24:42;;;;;;;3.78;3.28;;;15.10;99.90;;;;;;4999536;28;20108;-74
2022/09/01 04:27:09;;;;;;;5.05;3.67;;;15.10;99.90;;;;;;5012504;28;20045;-74
2022/09/01 04:29:35;;;;;;;4.93;3.35;;;15.10;99.90;;;;;;4997123;28;20022;-75
2022/09/01 04:32:09;;;;;;;5.05;3.78;;;15.10;99.90;;;;;;5005149;28;20495;-76
2022/09/01 04:34:37;;;;;;;4.40;4.00;;;15.20;99.90;;;;;;4999698;28;20033;-76
2022/09/01 04:37:07;;;;;;;4.32;3.38;;;15.30;99.90;;;;;;5001921;28;20022;-77
2022/09/01 04:39:35;;;;;;;3.50;3.20;;;15.30;99.90;;;;;;5006347;28;20054;-76
2022/09/01 04:42:07;;;;;;;5.47;3.70;;;15.10;99.90;;;;;;4992829;28;20023;-76
2022/09/01 04:44:34;;;;;;;5.00;3.38;;;15.20;99.90;;;;;;5005912;28;20109;-76
2022/09/01 04:47:00;;;;;;;4.32;3.42;;;15.10;99.90;;;;;;5004880;28;20084;-76
2022/09/01 04:49:27;;;;;;;6.03;3.65;;;15.20;99.90;;;;;;4992023;28;20026;-74
2022/09/01 04:51:53;;;;;;;4.35;3.30;;;15.20;99.90;;;;;;5003603;28;20021;-76
2022/09/01 04:54:20;;;;;;;4.28;3.20;;;15.10;99.90;;;;;;4999063;28;20533;-75
2022/09/01 04:56:49;;;;;;;4.18;3.47;;;15.20;99.90;;;;;;4999413;28;20030;-76
2022/09/01 04:59:19;;;;;;;4.28;3.40;;;15.20;99.90;;;;;;4999395;28;20022;-75
2022/09/01 05:01:45;;;;;;;3.63;3.30;;;15.20;99.90;;;;;;4997008;28;20023;-76
2022/09/01 05:04:26;;;;;;;4.95;3.42;;;15.10;99.90;;;;;;4998417;28;20033;-76
2022/09/01 05:06:58;;;;;;;5.28;3.50;;;15.20;99.90;;;;;;4995218;28;20121;-77
2022/09/01 05:09:25;;;;;;;4.80;3.40;;;15.30;99.90;;;;;;5001023;28;20116;-75
2022/09/01 05:11:51;;;;;;;3.60;3.30;;;15.50;99.90;;;;;;5007273;28;20033;-75
2022/09/01 05:14:18;;;;;;;4.53;3.17;;;15.30;99.90;;;;;;5012210;28;20030;-75
2022/09/01 05:16:44;;;;;;;3.90;3.33;;;15.30;99.90;;;;;;5011362;28;20027;-74
2022/09/01 05:19:13;;;;;;;4.38;3.70;;;15.20;99.90;;;;;;4992133;28;20101;-73
2022/09/01 05:21:46;;;;;;;4.32;3.75;;;15.50;99.90;;;;;;4995103;28;20115;-72
2022/09/01 05:24:20;;;;;;;4.10;3.20;;;15.50;99.90;;;;;;5000778;28;20030;-76
2022/09/01 05:26:47;;;;;;;7.18;3.30;;;15.60;99.90;;;;;;4998267;28;20034;-76
2022/09/01 05:29:16;;;;;;;3.83;3.15;;;15.60;99.90;;;;;;4999410;28;20041;-76
2022/09/01 05:31:47;;;;;;;3.90;3.03;;;15.70;99.90;;;;;;5004037;28;20069;-76
2022/09/01 05:34:25;;;;;;;4.20;3.25;;;15.70;99.90;;;;;;5005579;28;20026;-76
2022/09/01 05:36:53;;;;;;;4.97;3.40;;;15.80;99.90;;;;;;5000704;28;20092;-75
2022/09/01 05:39:19;;;;;;;5.05;3.15;;;16.00;99.90;;;;;;4997119;28;20026;-72
2022/09/01 05:41:47;;;;;;;5.13;2.90;;;16.00;99.90;;;;;;5003023;28;20106;-76
2022/09/01 05:44:14;;;;;;;4.05;3.55;;;15.90;99.90;;;;;;4993448;28;20023;-76
2022/09/01 05:46:42;;;;;;;5.47;3.10;;;16.10;99.90;;;;;;5005984;28;20081;-76
2022/09/01 05:49:12;;;;;;;5.13;3.65;;;16.40;99.90;;;;;;5009080;28;20481;-76
2022/09/01 05:51:41;;;;;;;5.32;3.10;;;16.30;99.90;;;;;;4995834;28;20118;-76
2022/09/01 05:54:08;;;;;;;4.53;3.22;;;16.10;99.90;;;;;;5007796;28;20036;-76
2022/09/01 05:56:37;;;;;;;4.97;3.47;;;16.30;99.90;;;;;;4995912;28;20030;-76
2022/09/01 05:59:03;;;;;;;5.18;3.08;;;16.30;99.90;;;;;;5008968;28;20068;-76
2022/09/01 06:01:30;;;;;;;3.40;3.10;;;16.10;99.90;;;;;;5006673;28;20018;-75
2022/09/01 06:03:56;;;;;;;5.30;3.47;;;16.40;99.90;;;;;;5001066;28;20434;-75
2022/09/01 06:06:39;;;;;;;6.65;3.08;;;16.40;99.90;;;;;;5004104;28;20034;-75
2022/09/01 06:09:06;;;;;;;4.25;3.13;;;16.40;99.90;;;;;;4995578;28;20030;-75
2022/09/01 06:11:32;;;;;;;3.88;3.03;;;16.40;99.90;;;;;;5007972;28;20026;-76
2022/09/01 06:14:02;;;;;;;3.92;2.90;;;16.60;99.90;;;;;;5013918;28;20026;-76
2022/09/01 06:16:28;;;;;;;6.95;3.03;;;16.70;99.90;;;;;;5001916;28;20034;-76
2022/09/01 06:18:56;;;;;;;3.17;2.80;;;16.80;99.90;;;;;;5007255;28;20687;-76
2022/09/01 06:21:23;;;;;;;3.80;2.95;;;16.90;99.90;;;;;;5007239;28;20034;-75
2022/09/01 06:23:52;;;;;;;5.68;3.25;;;17.00;99.90;;;;;;5001872;28;20022;-77
2022/09/01 06:26:27;;;;;;;6.15;3.15;;;17.10;99.90;;;;;;5007502;28;20511;-77
2022/09/01 06:29:03;;;;;;;3.65;2.95;;;16.80;99.90;;;;;;5014655;28;20022;-76
2022/09/01 06:31:33;;;;;;;5.18;3.10;;;16.90;99.90;;;;;;5001245;28;20018;-76
2022/09/01 06:34:02;;;;;;;7.32;3.00;;;17.10;99.90;;;;;;5002199;28;20065;-76
2022/09/01 06:36:31;;;;;;;4.38;2.90;;;17.10;99.90;;;;;;5008419;28;20073;-76
2022/09/01 06:38:59;;;;;;;5.00;3.30;;;17.10;99.90;;;;;;5007227;28;20716;-76
2022/09/01 06:41:25;;;;;;;3.40;2.92;;;17.20;99.90;;;;;;5001441;28;20042;-76
2022/09/01 06:43:52;;;;;;;3.53;2.95;;;17.20;99.90;;;;;;5001990;28;20065;-76
2022/09/01 06:46:22;;;;;;;4.72;2.88;;;17.20;99.90;;;;;;5008106;28;20076;-76
2022/09/01 06:48:49;;;;;;;3.53;2.90;;;17.10;99.90;;;;;;5006613;28;20109;-75
2022/09/01 06:51:17;;;;;;;3.78;2.88;;;17.10;99.90;;;;;;5006480;28;20108;-73
2022/09/01 06:53:44;;;;;;;4.20;2.70;;;17.40;99.90;;;;;;5006877;28;20023;-77
2022/09/01 06:56:12;;;;;;;4.43;2.80;;;17.50;99.90;;;;;;4999795;28;20022;-77
2022/09/01 06:58:46;;;;;;;3.80;2.97;;;17.50;99.90;;;;;;5000145;28;20054;-76
2022/09/01 07:01:14;;;;;;;7.13;3.00;;;17.90;99.90;;;;;;5012221;28;20427;-76
2022/09/01 07:03:46;;;;;;;5.25;2.60;;;17.70;99.90;;;;;;5011585;28;20022;-76
2022/09/01 07:06:13;;;;;;;3.40;2.67;;;17.70;99.90;;;;;;5009580;28;20030;-76
2022/09/01 07:08:38;;;;;;;4.18;2.65;;;17.80;99.90;;;;;;5011934;28;20021;-76
2022/09/01 07:11:22;;;;;;;4.22;2.60;;;17.90;99.90;;;;;;5012814;28;20026;-76
2022/09/01 07:13:49;;;;;;;3.15;2.85;;;18.00;99.90;;;;;;5010670;28;20054;-76
2022/09/01 07:16:21;;;;;;;5.55;2.55;;;18.00;99.90;;;;;;5000615;28;20369;-76
2022/09/01 07:18:55;;;;;;;3.13;2.50;;;17.90;99.90;;;;;;4993272;28;20568;-76
2022/09/01 07:21:20;;;;;;;3.10;2.40;;;17.90;99.90;;;;;;5008151;28;20033;-77
2022/09/01 07:23:46;;;;;;;3.58;2.30;;;18.10;99.90;;;;;;5006696;28;20145;-76
2022/09/01 07:26:16;;;;;;;3.03;2.50;;;18.30;99.90;;;;;;5008037;28;20064;-76
2022/09/01 07:28:44;;;;;;;4.50;2.33;;;18.30;99.90;;;;;;5013940;28;20494;-77
2022/09/01 07:31:19;;;;;;;3.80;2.25;;;18.50;99.90;;;;;;5009047;28;20061;-76
2022/09/01 07:33:48;;;;;;;2.40;2.10;;;18.50;99.90;;;;;;4999872;28;20061;-76
2022/09/01 07:36:14;;;;;;;2.80;2.10;;;18.70;99.90;;;;;;5007593;28;20023;-76
2022/09/01 07:38:41;;;;;;;4.80;2.45;;;18.60;99.90;;;;;;4998523;28;20026;-77
2022/09/01 07:41:11;;;;;;;4.75;2.33;;;18.70;99.90;;;;;;5012415;28;20022;-76
2022/09/01 07:43:43;;;;;;;2.30;2.00;;;18.80;99.90;;;;;;5014090;28;20029;-76
2022/09/01 07:46:10;;;;;;;4.05;2.28;;;18.90;99.90;;;;;;5013833;28;20073;-76
2022/09/01 07:48:37;;;;;;;5.22;2.70;;;19.00;99.90;;;;;;5013479;28;20022;-76
2022/09/01 07:51:03;;;;;;;2.50;2.30;;;19.00;99.90;;;;;;5000402;28;20036;-75
2022/09/01 07:53:32;;;;;;;4.65;2.40;;;19.00;99.90;;;;;;5012135;28;20164;-77
2022/09/01 07:56:05;;;;;;;3.40;2.20;;;19.10;99.90;;;;;;4999288;28;20495;-77
2022/09/01 07:58:32;;;;;;;2.55;2.17;;;19.30;99.90;;;;;;5000460;28;20037;-75
2022/09/01 08:01:01;;;;;;;3.35;1.95;;;19.20;99.90;;;;;;5005557;28;20019;-77
2022/09/01 08:03:27;;;;;;;4.40;2.08;;;19.30;99.90;;;;;;5006837;28;20033;-76
2022/09/01 08:05:56;;;;;;;5.50;2.22;;;19.40;99.90;;;;;;4992545;28;20080;-76
2022/09/01 08:08:22;;;;;;;2.83;1.98;;;19.50;99.90;;;;;;5006348;28;20021;-76
2022/09/01 08:10:48;;;;;;;3.95;2.15;;;19.50;99.90;;;;;;5001541;28;20028;-76
2022/09/01 08:13:14;;;;;;;3.30;2.08;;;19.70;99.90;;;;;;5012667;28;20399;-76
2022/09/01 08:15:40;;;;;;;3.38;1.88;;;19.90;99.90;;;;;;5012624;28;20061;-76
2022/09/01 08:18:06;;;;;;;5.68;2.00;;;19.70;99.90;;;;;;4999507;28;20065;-77
2022/09/01 08:20:36;;;;;;;2.95;2.05;;;19.80;99.90;;;;;;5003929;28;20570;-76
2022/09/01 08:23:02;;;;;;;4.65;2.42;;;19.80;99.90;;;;;;4994057;28;20033;-76
2022/09/01 08:25:29;;;;;;;2.30;2.08;;;19.70;99.90;;;;;;5004593;28;20038;-76
2022/09/01 08:27:55;;;;;;;3.17;2.00;;;19.80;99.90;;;;;;5006026;28;20437;-76
2022/09/01 08:30:22;;;;;;;3.60;2.38;;;19.90;99.90;;;;;;4991511;28;20037;-76
2022/09/01 08:32:49;;;;;;;3.80;2.15;;;19.90;99.90;;;;;;5008041;28;20021;-78
2022/09/01 08:35:15;;;;;;;3.13;2.10;;;19.90;99.90;;;;;;5004226;28;20030;-76
2022/09/01 08:37:42;;;;;;;5.20;2.38;;;19.90;99.90;;;;;;5006222;28;20688;-75
2022/09/01 08:40:13;;;;;;;3.30;2.03;;;20.00;99.90;;;;;;4991901;28;20022;-76
2022/09/01 08:43:06;;;;;;;3.05;2.10;;;20.00;99.90;;;;;;5006188;28;20030;-77
2022/09/01 08:45:49;;;;;;;2.17;1.98;;;20.10;99.90;;;;;;5004907;28;20392;-76
2022/09/01 08:48:39;;;;;;;2.78;1.88;;;20.40;99.90;;;;;;5001836;28;20500;-76
2022/09/01 08:51:31;;;;;;;2.88;1.90;;;20.70;99.90;;;;;;4999485;28;20030;-76
2022/09/01 08:54:23;;;;;;;3.65;2.00;;;20.60;99.90;;;;;;4996688;28;20428;-76
2022/09/01 08:57:17;;;;;;;3.20;2.05;;;20.50;99.90;;;;;;4992794;28;20076;-76
2022/09/01 08:59:42;;;;;;;2.45;2.25;;;20.30;99.90;;;;;;4998419;28;20040;-75
2022/09/01 09:02:26;;;;;;;2.78;2.10;;;20.10;99.90;;;;;;4998104;28;20022;-76
2022/09/01 09:05:19;;;;;;;2.70;2.03;;;20.30;99.90;;;;;;4999641;28;20125;-76
2022/09/01 09:08:17;;;;;;;5.28;2.10;;;20.50;99.90;;;;;;4992078;28;20105;-76
2022/09/01 09:11:24;;;;;;;2.80;2.20;;;20.40;99.90;;;;;;4992784;28;20027;-77
2022/09/01 09:13:58;;;;;;;2.58;2.15;;;20.40;99.90;;;;;;5016208;28;20496;-76
2022/09/01 09:16:28;;;;;;;2.85;1.92;;;20.90;99.90;;;;;;5017523;28;20113;-76
2022/09/01 09:19:09;;;;;;;2.47;1.90;;;20.90;99.90;;;;;;5000081;28;20033;-76
2022/09/01 09:21:37;;;;;;;5.97;2.38;;;20.80;99.90;;;;;;5009309;28;20022;-76
2022/09/01 09:24:22;;;;;;;2.78;2.00;;;20.70;99.90;;;;;;5010608;28;20038;-76
2022/09/01 09:26:53;;;;;;;2.63;2.13;;;20.80;99.90;;;;;;5005614;28;20037;-76
2022/09/01 09:29:23;;;;;;;5.13;2.47;;;20.90;99.90;;;;;;4990550;28;20431;-75
2022/09/01 09:31:59;;;;;;;2.92;1.88;;;20.30;99.90;;;;;;5005515;28;20030;-76
2022/09/01 09:34:41;;;;;;;3.38;1.90;;;20.40;99.90;;;;;;5008422;28;20124;-76
2022/09/01 09:37:22;;;;;;;4.13;2.00;;;20.80;99.90;;;;;;4991180;28;20027;-76
2022/09/01 09:40:14;;;;;;;2.97;2.20;;;20.70;99.90;;;;;;4996242;28;20057;-76
2022/09/01 09:42:54;;;;;;;3.30;2.22;;;20.60;99.90;;;;;;4999144;28;20448;-76
2022/09/01 09:45:27;;;;;;;3.65;2.33;;;20.70;99.90;;;;;;5008098;28;20053;-77
2022/09/01 09:47:54;;;;;;;3.08;2.15;;;20.60;99.90;;;;;;4996562;28;20037;-75
2022/09/01 09:50:28;;;;;;;6.60;2.20;;;20.90;99.90;;;;;;4998988;28;20026;-76
2022/09/01 09:53:11;;;;;;;4.68;2.20;;;20.70;99.90;;;;;;4999498;28;20080;-75
2022/09/01 09:55:50;;;;;;;2.80;2.00;;;20.80;99.90;;;;;;4998533;28;20499;-75
2022/09/01 09:58:16;;;;;;;6.10;2.47;;;20.70;99.90;;;;;;4999418;28;20026;-76
2022/09/01 10:01:21;;;;;;;4.65;2.33;;;20.60;99.90;;;;;;5003787;28;20077;-76
2022/09/01 10:03:58;;;;;;;3.78;2.20;;;20.50;99.90;;;;;;5000681;28;20117;-76
2022/09/01 10:06:30;;;;;;;3.90;2.33;;;20.50;99.90;;;;;;5002655;28;20080;-76
2022/09/01 10:08:57;;;;;;;4.90;2.10;;;20.60;99.90;;;;;;4992402;28;20133;-75
2022/09/01 10:11:28;;;;;;;2.42;2.10;;;20.70;99.90;;;;;;5004947;28;20018;-76
2022/09/01 10:13:54;;;;;;;2.47;2.20;;;20.80;99.90;;;;;;4990669;28;20500;-76
2022/09/01 10:16:31;;;;;;;2.55;2.15;;;20.80;99.90;;;;;;5005136;28;20034;-76
2022/09/01 10:18:59;;;;;;;2.15;1.80;;;21.00;99.90;;;;;;4999808;28;20060;-77
2022/09/01 10:21:33;;;;;;;4.18;2.17;;;21.10;99.90;;;;;;4998149;28;20069;-75
2022/09/01 10:23:59;;;;;;;4.68;2.08;;;21.30;99.90;;;;;;5000884;28;20057;-77
2022/09/01 10:26:37;;;;;;;2.10;1.88;;;21.40;99.90;;;;;;5004997;28;20078;-75
2022/09/01 10:29:13;;;;;;;3.40;2.00;;;21.60;99.90;;;;;;5002699;28;20113;-76
2022/09/01 10:31:40;;;;;;;3.08;1.95;;;21.70;99.90;;;;;;5006298;28;20030;-76
2022/09/01 10:34:11;;;;;;;4.97;2.03;;;21.60;99.90;;;;;;5007461;28;20140;-76
2022/09/01 10:36:39;;;;;;;3.60;2.05;;;21.50;99.90;;;;;;5008000;28;20041;-75
2022/09/01 10:39:10;;;;;;;2.58;1.95;;;21.70;99.90;;;;;;5007913;28;20035;-76
2022/09/01 10:41:49;;;;;;;2.70;2.03;;;21.90;99.90;;;;;;5001930;28;20023;-77
2022/09/01 10:44:37;;;;;;;3.38;2.00;;;22.00;99.90;;;;;;5001648;28;20484;-76
2022/09/01 10:47:28;;;;;;;4.60;2.03;;;22.40;99.90;;;;;;5001798;28;20121;-76
2022/09/01 10:49:54;;;;;;;2.60;2.10;;;22.50;99.90;;;;;;4993804;28;20030;-77
2022/09/01 10:52:41;;;;;;;2.33;2.13;;;22.30;99.90;;;;;;5007011;28;20026;-77
2022/09/01 10:55:24;;;;;;;3.22;1.85;;;22.40;99.90;;;;;;4995009;28;20183;-75
2022/09/01 10:58:24;;;;;;;2.30;2.00;;;22.40;99.90;;;;;;5001589;28;20059;-77
2022/09/01 11:00:51;;;;;;;2.25;1.88;;;22.50;99.90;;;;;;4996262;28;20044;-77
2022/09/01 11:03:17;;;;;;;4.72;1.83;;;22.70;99.90;;;;;;5006742;28;20512;-76
2022/09/01 11:05:52;;;;;;;2.08;1.70;;;22.90;99.90;;;;;;4999823;28;20034;-76
2022/09/01 11:08:23;;;;;;;2.45;1.88;;;23.30;99.90;;;;;;5001053;28;20034;-77
2022/09/01 11:10:54;;;;;;;2.72;2.10;;;23.40;99.90;;;;;;4994732;28;20034;-77
2022/09/01 11:13:25;;;;;;;3.25;1.80;;;23.30;99.90;;;;;;4994774;28;20508;-77
2022/09/01 11:15:52;;;;;;;2.17;1.70;;;23.20;99.90;;;;;;5002422;28;20502;-76
2022/09/01 11:18:28;;;;;;;2.35;1.75;;;23.60;99.90;;;;;;5001866;28;20153;-77
2022/09/01 11:20:54;;;;;;;3.33;1.90;;;23.40;99.90;;;;;;5007834;28;20626;-77
2022/09/01 11:23:24;;;;;;;2.10;1.60;;;23.40;99.90;;;;;;5007354;28;20539;-77
2022/09/01 11:26:20;;;;;;;3.20;2.03;;;23.20;99.90;;;;;;5004145;28;20034;-78
2022/09/01 11:28:46;;;;;;;2.10;1.63;;;23.50;99.90;;;;;;5002471;28;20099;-77
2022/09/01 11:31:42;;;;;;;3.58;1.85;;;23.40;99.90;;;;;;4999465;28;20030;-76
2022/09/01 11:34:16;;;;;;;3.25;1.90;;;23.30;99.90;;;;;;5000788;28;20038;-77
2022/09/01 11:36:43;;;;;;;2.35;1.75;;;23.30;99.90;;;;;;5000090;28;20085;-76
2022/09/01 11:39:18;;;;;;;2.40;1.85;;;23.50;99.90;;;;;;5000121;28;20041;-77
2022/09/01 11:41:55;;;;;;;6.90;2.00;;;23.70;99.90;;;;;;5004810;28;20022;-77
2022/09/01 11:44:30;;;;;;;1.90;1.80;;;23.70;99.90;;;;;;5006736;28;20023;-77
2022/09/01 11:47:09;;;;;;;2.35;1.60;;;23.70;99.90;;;;;;5005146;28;20037;-77
2022/09/01 11:49:51;;;;;;;5.13;1.90;;;23.70;99.90;;;;;;5000505;28;20080;-77
2022/09/01 11:52:19;;;;;;;1.92;1.60;;;23.90;99.90;;;;;;5000405;28;20035;-77
2022/09/01 11:54:45;;;;;;;2.95;2.20;;;23.70;99.90;;;;;;5003738;28;20038;-76
2022/09/01 11:57:17;;;;;;;3.47;1.90;;;23.90;99.90;;;;;;5005298;28;20033;-77
2022/09/01 11:59:44;;;;;;;2.35;1.80;;;24.00;99.90;;;;;;5003927;28;20018;-77
2022/09/01 12:02:26;;;;;;;2.60;1.70;;;23.60;99.90;;;;;;5000149;28;20014;-78
2022/09/01 12:04:55;;;;;;;3.53;2.00;;;23.20;99.90;;;;;;5000954;28;20023;-77
2022/09/01 12:07:56;;;;;;;3.03;2.00;;;23.50;99.90;;;;;;5006610;28;20030;-77
2022/09/01 12:10:39;;;;;;;4.97;1.83;;;23.90;99.90;;;;;;4991040;28;20030;-76
2022/09/01 12:13:06;;;;;;;3.30;2.00;;;23.60;99.90;;;;;;5003625;28;20125;-76
2022/09/01 12:15:33;;;;;;;4.85;2.30;;;23.90;99.90;;;;;;4998747;28;20057;-77
2022/09/01 12:18:17;;;;;;;3.38;1.90;;;24.00;99.90;;;;;;4999580;28;20026;-78
2022/09/01 12:20:44;;;;;;;2.75;1.70;;;23.70;99.90;;;;;;5003087;28;20054;-77
2022/09/01 12:23:21;;;;;;;2.15;1.95;;;23.80;99.90;;;;;;5006336;28;20018;-76
2022/09/01 12:25:47;;;;;;;3.88;2.20;;;24.00;99.90;;;;;;5002978;28;20033;-78
2022/09/01 12:28:13;;;;;;;2.88;1.85;;;25.10;99.90;;;;;;4999452;28;20030;-77
2022/09/01 12:30:40;;;;;;;3.65;2.20;;;25.70;99.90;;;;;;5001276;28;20084;-76
2022/09/01 12:33:10;;;;;;;2.38;2.00;;;25.90;99.90;;;;;;5006192;28;20084;-76
2022/09/01 12:35:36;;;;;;;2.90;2.10;;;26.80;99.90;;;;;;5003522;28;20033;-76
2022/09/01 12:38:24;;;;;;;2.00;1.80;;;27.70;99.90;;;;;;4999203;28;20022;-77
2022/09/01 12:40:55;;;;;;;2.63;1.88;;;28.20;99.40;;;;;;4999097;28;20031;-77
2022/09/01 12:43:35;;;;;;;2.30;2.10;;;28.60;98.60;;;;;;5002337;28;20027;-77
2022/09/01 12:46:03;;;;;;;3.65;2.13;;;29.10;97.90;;;;;;5006010;28;20102;-77
2022/09/01 12:48:34;;;;;;;2.40;2.20;;;28.70;97.50;;;;;;5003857;28;20018;-77
2022/09/01 12:51:15;;;;;;;2.60;1.95;;;27.00;98.80;;;;;;4999039;28;20037;-77
2022/09/01 12:53:58;;;;;;;2.50;1.90;;;26.10;98.50;;;;;;4997589;28;20026;-77
2022/09/01 12:56:33;;;;;;;2.22;1.75;;;26.00;98.10;;;;;;5001149;28;20023;-77
2022/09/01 12:59:24;;;;;;;3.60;1.90;;;25.30;98.40;;;;;;5009030;28;20105;-77
2022/09/01 13:01:49;;;;;;;3.15;2.03;;;25.70;99.20;;;;;;5006092;28;20112;-76
2022/09/01 13:04:29;;;;;;;3.08;1.60;;;25.70;97.70;;;;;;5000269;28;20101;-77
2022/09/01 13:07:02;;;;;;;2.28;1.63;;;25.40;98.10;;;;;;4997553;28;20029;-77
2022/09/01 13:09:28;;;;;;;2.05;1.85;;;24.80;98.40;;;;;;5001841;28;20027;-77
2022/09/01 13:12:08;;;;;;;2.80;1.90;;;24.00;99.20;;;;;;4995407;28;20040;-77
2022/09/01 13:14:34;;;;;;;2.42;1.85;;;23.80;99.80;;;;;;5012107;28;20033;-77